createdAt,value
2023-05-25T00:04:44.406Z,69.87
2023-05-25T00:09:50.350Z,70.13
2023-05-25T00:14:56.197Z,68.34
2023-05-25T00:20:12.372Z,68.58
2023-05-25T00:25:18.145Z,69.18
2023-05-25T00:30:24.060Z,69.19
2023-05-25T00:35:29.945Z,68.50
2023-05-25T00:40:36.555Z,68.04
2023-05-25T00:45:42.901Z,68.93
2023-05-25T00:50:49.264Z,68.63
2023-05-25T00:56:11.537Z,68.21
2023-05-25T01:01:17.489Z,67.32
2023-05-25T01:06:24.178Z,66.68
2023-05-25T01:11:40.176Z,66.92
2023-05-25T01:16:46.276Z,68.18
2023-05-25T01:22:33.214Z,68.19
2023-05-25T01:27:55.021Z,68.35
2023-05-25T01:33:01.903Z,68.64
2023-05-25T01:38:07.654Z,68.96
2023-05-25T01:43:13.671Z,68.62
2023-05-25T01:48:56.189Z,69.10
2023-05-25T01:54:10.048Z,67.96
2023-05-25T01:59:23.187Z,67.95
2023-05-25T02:04:32.073Z,68.18
2023-05-25T02:09:37.790Z,69.05
2023-05-25T02:14:43.893Z,68.00
2023-05-25T02:19:55.391Z,67.34
2023-05-25T02:25:01.246Z,67.02
2023-05-25T02:30:09.630Z,67.75
2023-05-25T02:35:15.259Z,66.14
2023-05-25T02:40:21.693Z,65.30
2023-05-25T02:45:27.608Z,64.26
2023-05-25T02:50:33.178Z,66.37
2023-05-25T02:55:45.591Z,65.86
2023-05-25T03:01:00.848Z,61.98
2023-05-25T03:06:07.686Z,60.72
2023-05-25T03:11:13.130Z,58.30
2023-05-25T03:16:18.636Z,56.79
2023-05-25T03:21:24.281Z,53.76
2023-05-25T03:26:31.194Z,54.12
2023-05-25T03:31:37.236Z,53.06
2023-05-25T03:36:50.138Z,50.85
2023-05-25T03:41:58.761Z,49.46
2023-05-25T03:47:04.824Z,45.75
2023-05-25T03:52:10.595Z,48.45
2023-05-25T03:57:16.394Z,45.39
2023-05-25T04:02:22.156Z,44.80
2023-05-25T04:07:30.640Z,45.56
2023-05-25T04:12:37.970Z,43.82
2023-05-25T04:17:43.518Z,43.65
2023-05-25T04:22:48.952Z,42.30
2023-05-25T04:27:54.269Z,43.42
2023-05-25T04:33:18.549Z,44.20
2023-05-25T04:38:38.081Z,42.38
2023-05-25T04:44:04.027Z,42.38
2023-05-25T04:49:13.885Z,42.75
2023-05-25T04:54:18.156Z,43.83
2023-05-25T04:59:22.696Z,40.76
2023-05-25T05:04:28.073Z,38.67
2023-05-25T05:09:33.278Z,41.65
2023-05-25T05:14:38.738Z,38.60
2023-05-25T05:19:43.133Z,39.53
2023-05-25T05:24:49.156Z,39.12
2023-05-25T05:29:59.595Z,39.61
2023-05-25T05:35:03.996Z,39.49
2023-05-25T05:40:18.089Z,40.96
2023-05-25T05:45:22.504Z,42.44
2023-05-25T05:50:26.604Z,42.54
2023-05-25T05:55:31.432Z,43.00
2023-05-25T06:00:35.860Z,42.41
2023-05-25T06:05:40.219Z,40.98
2023-05-25T06:10:44.501Z,40.17
2023-05-25T06:15:48.779Z,40.95
2023-05-25T06:20:58.422Z,40.72
2023-05-25T06:26:07.117Z,42.10
2023-05-25T06:31:11.417Z,42.57
2023-05-25T06:36:16.123Z,42.96
2023-05-25T06:41:22.643Z,41.83
2023-05-25T06:46:26.938Z,42.14
2023-05-25T06:51:31.823Z,42.97
2023-05-25T06:56:36.215Z,41.68
2023-05-25T07:01:40.664Z,42.14
2023-05-25T07:06:45.140Z,40.33
2023-05-25T07:11:49.274Z,41.15
2023-05-25T07:16:53.542Z,41.82
2023-05-25T07:21:57.688Z,41.75
2023-05-25T07:27:03.036Z,42.82
2023-05-25T07:32:08.078Z,39.79
2023-05-25T07:37:12.316Z,40.61
2023-05-25T07:42:21.456Z,38.56
2023-05-25T07:47:25.689Z,38.68
2023-05-25T07:52:30.008Z,38.02
2023-05-25T07:57:37.020Z,37.57
2023-05-25T08:02:41.813Z,38.77
2023-05-25T08:07:47.150Z,36.16
2023-05-25T08:12:52.509Z,34.76
2023-05-25T08:17:57.208Z,35.80
2023-05-25T08:23:02.427Z,34.48
2023-05-25T08:28:07.741Z,33.04
2023-05-25T08:33:12.074Z,35.70
2023-05-25T08:38:16.433Z,32.75
2023-05-25T08:43:20.757Z,32.93
2023-05-25T08:48:40.213Z,32.98
2023-05-25T08:53:46.805Z,34.71
2023-05-25T08:59:10.202Z,32.54
2023-05-25T09:04:15.048Z,31.83
2023-05-25T09:09:19.969Z,34.49
2023-05-25T09:14:24.936Z,33.10
2023-05-25T09:19:29.111Z,34.70
2023-05-25T09:24:34.486Z,32.98
2023-05-25T09:29:39.019Z,34.71
2023-05-25T09:34:47.318Z,34.78
2023-05-25T09:39:53.435Z,35.57
2023-05-25T09:45:00.635Z,35.94
2023-05-25T09:50:05.169Z,37.50
2023-05-25T09:55:11.344Z,40.61
2023-05-25T10:00:16.745Z,40.95
2023-05-25T10:05:21.068Z,42.16
2023-05-25T10:10:25.914Z,42.51
2023-05-25T10:15:31.674Z,43.79
2023-05-25T10:20:36.777Z,44.12
2023-05-25T10:25:51.994Z,47.85
2023-05-25T10:30:58.787Z,51.51
2023-05-25T10:36:10.673Z,51.66
2023-05-25T10:41:16.929Z,50.15
2023-05-25T10:46:22.850Z,48.16
2023-05-25T10:51:38.666Z,48.63
2023-05-25T10:57:34.748Z,50.92
2023-05-25T11:02:54.070Z,53.14
2023-05-25T11:08:06.407Z,55.62
2023-05-25T11:13:34.333Z,55.19
2023-05-25T11:18:40.004Z,58.39
2023-05-25T11:24:01.013Z,58.99
2023-05-25T11:29:16.945Z,61.90
2023-05-25T11:34:24.957Z,63.22
2023-05-25T11:39:30.020Z,64.21
2023-05-25T11:44:36.979Z,62.91
2023-05-25T11:49:43.131Z,62.87
2023-05-25T11:54:48.497Z,62.45
2023-05-25T11:59:54.293Z,58.21
2023-05-25T12:05:02.228Z,58.12
2023-05-25T12:10:14.758Z,54.83
2023-05-25T12:15:24.561Z,53.06
2023-05-25T12:20:29.076Z,52.04
2023-05-25T12:25:49.138Z,51.31
2023-05-25T12:30:54.641Z,49.86
2023-05-25T12:35:58.774Z,48.27
2023-05-25T12:41:07.658Z,52.44
2023-05-25T12:46:12.299Z,53.85
2023-05-25T12:51:16.537Z,52.73
2023-05-25T12:56:20.777Z,55.00
2023-05-25T13:01:25.277Z,56.82
2023-05-25T13:06:29.575Z,59.90
2023-05-25T13:11:35.078Z,62.90
2023-05-25T13:16:39.443Z,62.61
2023-05-25T13:21:46.431Z,62.26
2023-05-25T13:26:51.709Z,60.65
2023-05-25T13:31:57.318Z,60.22
2023-05-25T13:37:02.909Z,61.53
2023-05-25T13:42:08.400Z,60.51
2023-05-25T13:47:13.804Z,62.62
2023-05-25T13:52:19.422Z,61.63
2023-05-25T13:57:24.971Z,61.00
2023-05-25T14:02:32.621Z,60.61
2023-05-25T14:07:40.483Z,60.37
2023-05-25T14:12:46.181Z,59.68
2023-05-25T14:17:51.991Z,58.68
2023-05-25T14:22:57.538Z,59.55
2023-05-25T14:28:03.180Z,60.62
2023-05-25T14:33:08.737Z,61.26
2023-05-25T14:38:14.140Z,61.09
2023-05-25T14:43:19.667Z,60.90
2023-05-25T14:48:26.639Z,60.20
2023-05-25T14:53:32.570Z,60.00
2023-05-25T14:58:38.031Z,59.60
2023-05-25T15:03:43.595Z,58.56
2023-05-25T15:08:49.174Z,57.19
2023-05-25T15:13:54.582Z,55.71
2023-05-25T15:18:59.995Z,55.73
2023-05-25T15:24:05.446Z,56.06
2023-05-25T15:29:11.266Z,56.37
2023-05-25T15:34:16.834Z,56.74
2023-05-25T15:39:22.580Z,57.29
2023-05-25T15:44:28.017Z,59.87
2023-05-25T15:49:39.577Z,59.12
2023-05-25T15:54:45.394Z,59.65
2023-05-25T15:59:51.926Z,61.08
2023-05-25T16:04:57.049Z,61.75
2023-05-25T16:10:02.644Z,59.36
2023-05-25T16:15:10.103Z,58.33
2023-05-25T16:20:16.043Z,57.52
2023-05-25T16:25:21.891Z,57.21
2023-05-25T16:30:27.483Z,57.92
2023-05-25T16:35:33.222Z,58.43
2023-05-25T16:40:38.913Z,57.19
2023-05-25T16:45:44.839Z,59.53
2023-05-25T16:50:50.879Z,58.48
2023-05-25T16:55:56.734Z,57.17
2023-05-25T17:01:02.246Z,58.11
2023-05-25T17:06:08.428Z,59.26
2023-05-25T17:11:14.481Z,60.25
2023-05-25T17:16:20.173Z,60.57
2023-05-25T17:21:25.905Z,59.65
2023-05-25T17:26:31.519Z,58.50
2023-05-25T17:31:37.145Z,58.53
2023-05-25T17:36:43.541Z,58.16
2023-05-25T17:41:50.846Z,57.23
2023-05-25T17:46:56.416Z,56.86
2023-05-25T17:52:02.179Z,56.88
2023-05-25T17:57:08.542Z,56.86
2023-05-25T18:02:17.001Z,56.76
2023-05-25T18:07:23.003Z,56.78
2023-05-25T18:12:28.918Z,56.27
2023-05-25T18:17:34.535Z,54.87
2023-05-25T18:22:40.192Z,54.17
2023-05-25T18:27:45.755Z,54.56
2023-05-25T18:32:51.399Z,53.57
2023-05-25T18:37:57.016Z,52.49
2023-05-25T18:43:02.605Z,52.53
2023-05-25T18:48:08.494Z,52.13
2023-05-25T18:53:13.897Z,52.23
2023-05-25T18:58:19.755Z,50.44
2023-05-25T19:03:25.685Z,48.92
2023-05-25T19:08:31.394Z,49.88
2023-05-25T19:13:37.475Z,50.45
2023-05-25T19:18:43.068Z,51.54
2023-05-25T19:23:49.259Z,51.46
2023-05-25T19:28:54.888Z,50.95
2023-05-25T19:34:00.387Z,50.53
2023-05-25T19:39:05.761Z,50.24
2023-05-25T19:44:11.360Z,51.09
2023-05-25T19:49:16.917Z,51.47
2023-05-25T19:54:22.573Z,51.20
2023-05-25T19:59:30.741Z,50.52
2023-05-25T20:04:36.299Z,51.56
2023-05-25T20:09:43.512Z,51.29
2023-05-25T20:14:49.276Z,52.94
2023-05-25T20:19:57.223Z,53.14
2023-05-25T20:25:03.209Z,52.04
2023-05-25T20:30:09.170Z,52.16
2023-05-25T20:35:15.039Z,51.41
2023-05-25T20:40:21.491Z,51.24
2023-05-25T20:45:27.290Z,50.27
2023-05-25T20:50:33.179Z,50.72
2023-05-25T20:55:39.188Z,50.39
2023-05-25T21:00:47.023Z,49.74
2023-05-25T21:05:52.666Z,49.76
2023-05-25T21:10:58.246Z,53.43
2023-05-25T21:16:03.961Z,53.26
2023-05-25T21:21:11.905Z,52.50
2023-05-25T21:26:17.731Z,53.40
2023-05-25T21:31:26.653Z,52.59
2023-05-25T21:36:33.676Z,56.26
2023-05-25T21:41:39.375Z,55.94
2023-05-25T21:46:45.107Z,55.25
2023-05-25T21:51:50.696Z,54.59
2023-05-25T21:56:56.210Z,55.26
2023-05-25T22:02:01.831Z,59.47
2023-05-25T22:07:07.491Z,58.69
2023-05-25T22:12:13.445Z,60.45
2023-05-25T22:17:19.693Z,60.43
2023-05-25T22:22:25.296Z,60.53
2023-05-25T22:27:30.990Z,61.87
2023-05-25T22:32:36.762Z,61.01
2023-05-25T22:37:42.553Z,60.87
2023-05-25T22:42:50.886Z,60.23
2023-05-25T22:47:56.438Z,60.75
2023-05-25T22:53:02.420Z,59.98
2023-05-25T22:58:07.960Z,61.02
2023-05-25T23:03:13.928Z,61.12
2023-05-25T23:08:19.851Z,60.26
2023-05-25T23:13:25.504Z,59.82
2023-05-25T23:18:31.009Z,60.21
2023-05-25T23:23:36.672Z,60.95
2023-05-25T23:28:42.534Z,61.60
2023-05-25T23:33:48.161Z,60.99
2023-05-25T23:38:54.117Z,62.87
2023-05-25T23:43:59.985Z,62.81
2023-05-25T23:49:05.702Z,63.63
2023-05-25T23:54:11.633Z,63.55
2023-05-25T23:59:17.629Z,62.25
